Time;durP1;ratioP1;P1;durP2;ratioP2;P2;SDS_P1;SDS_P2;PMS_P1;PMS_P2;Temp;Humidity;BMP_temperature;BMP_pressure;BME280_temperature;BME280_humidity;BME280_pressure;Samples;Min_cycle;Max_cycle;Signal;HPM_P1;HPM_P2
2021/12/04 10:34:38;;;;;;;45.28;24.17;;;;;;;;;;6316345;27;20493;-67
2021/12/04 10:37:46;;;;;;;35.00;15.20;;;;;;;;;;6316758;28;20048;-68
2021/12/04 10:40:50;;;;;;;30.98;15.70;;;;;;;;;;6314477;28;20089;-68
2021/12/04 10:43:54;;;;;;;30.25;15.55;;;;;;;;;;6315264;28;20052;-67
2021/12/04 10:47:02;;;;;;;31.33;16.27;;;;;;;;;;6316388;28;20048;-67
2021/12/04 10:50:13;;;;;;;;;;;;;;;;;;6315586;28;20044;-68
2021/12/04 10:53:20;;;;;;;26.45;14.23;;;;;;;;;;6313044;28;19927;-68
2021/12/04 10:56:30;;;;;;;24.52;14.27;;;;;;;;;;6292711;28;20052;-68
2021/12/04 10:59:43;;;;;;;25.55;13.60;;;;;;;;;;6289699;28;20045;-67
2021/12/04 11:02:50;;;;;;;26.15;13.45;;;;;;;;;;6291767;28;20048;-68
2021/12/04 11:19:50;;;;;;;27.25;15.95;;;;;;;;;;6313326;28;20470;-68
2021/12/04 11:36:34;;;;;;;25.98;13.23;;;;;;;;;;6313482;28;20055;-68
2021/12/04 11:39:50;;;;;;;25.55;12.45;;;;;;;;;;6313468;28;20048;-68
2021/12/04 11:43:00;;;;;;;37.50;11.55;;;;;;;;;;6314241;28;20201;-69
2021/12/04 11:46:14;;;;;;;21.45;11.23;;;;;;;;;;6296032;28;20058;-70
2021/12/04 11:49:18;;;;;;;21.92;9.75;;;;;;;;;;6295083;28;20469;-68
2021/12/04 11:52:21;;;;;;;20.83;9.02;;;;;;;;;;6297793;28;20463;-68
2021/12/04 11:55:27;;;;;;;17.10;8.57;;;;;;;;;;6296698;28;20059;-68
2021/12/04 11:58:33;;;;;;;19.23;8.52;;;;;;;;;;6295396;28;20041;-68
2021/12/04 12:01:38;;;;;;;16.85;8.00;;;;;;;;;;6297123;28;20055;-68
2021/12/04 12:04:46;;;;;;;15.05;8.38;;;;;;;;;;6297547;28;20093;-69
2021/12/04 12:07:51;;;;;;;16.92;8.07;;;;;;;;;;6297572;28;20056;-68
2021/12/04 12:10:57;;;;;;;14.90;7.47;;;;;;;;;;6295736;28;20074;-68
2021/12/04 12:14:00;;;;;;;;;;;;;;;;;;6297787;28;20305;-69
2021/12/04 12:17:05;;;;;;;14.65;7.15;;;;;;;;;;6295797;28;19931;-68
2021/12/04 12:20:15;;;;;;;22.75;13.20;;;;;;;;;;6294820;28;20040;-68
2021/12/04 12:23:21;;;;;;;16.98;8.40;;;;;;;;;;6296281;28;20071;-67
2021/12/04 12:26:33;;;;;;;16.45;8.02;;;;;;;;;;6296961;28;20051;-68
2021/12/04 12:33:26;;;;;;;16.73;8.40;;;;;;;;;;6295276;28;20048;-67
2021/12/04 12:36:30;;;;;;;18.27;9.07;;;;;;;;;;6295726;28;20078;-67
2021/12/04 12:39:37;;;;;;;17.20;8.52;;;;;;;;;;6295307;28;20036;-66
2021/12/04 12:42:44;;;;;;;16.23;8.88;;;;;;;;;;6295332;28;20100;-66
2021/12/04 12:45:49;;;;;;;;;;;;;;;;;;6295535;28;20082;-66
2021/12/04 12:48:54;;;;;;;18.48;8.65;;;;;;;;;;6296464;28;20007;-67
2021/12/04 12:52:00;;;;;;;15.27;7.38;;;;;;;;;;6296731;28;20044;-66
2021/12/04 12:55:09;;;;;;;17.90;8.77;;;;;;;;;;6293880;28;20037;-67
2021/12/04 12:58:17;;;;;;;20.58;8.80;;;;;;;;;;6294767;28;20044;-67
2021/12/04 13:12:04;;;;;;;19.15;9.48;;;;;;;;;;6294219;28;20083;-67
2021/12/04 13:15:11;;;;;;;21.40;10.03;;;;;;;;;;6295207;28;20098;-68
2021/12/04 13:18:17;;;;;;;19.75;10.68;;;;;;;;;;6296420;28;20044;-68
2021/12/04 13:21:20;;;;;;;;;;;;;;;;;;6293747;28;20048;-68
2021/12/04 13:24:25;;;;;;;23.77;11.27;;;;;;;;;;6289041;28;20322;-68
2021/12/04 13:30:33;;;;;;;22.17;11.73;;;;;;;;;;6292911;28;20040;-67
2021/12/04 13:33:40;;;;;;;22.98;11.18;;;;;;;;;;6288988;28;20048;-67
2021/12/04 13:36:45;;;;;;;22.17;12.55;;;;;;;;;;6289495;28;20287;-66
2021/12/04 13:39:55;;;;;;;25.42;11.93;;;;;;;;;;6291427;28;20174;-67
2021/12/04 13:43:01;;;;;;;26.35;12.15;;;;;;;;;;6289324;28;20048;-67
2021/12/04 13:46:07;;;;;;;23.83;11.60;;;;;;;;;;6288979;28;20055;-67
2021/12/04 13:49:11;;;;;;;22.88;12.82;;;;;;;;;;6290164;28;20051;-67
2021/12/04 13:52:16;;;;;;;20.38;11.98;;;;;;;;;;6291740;28;20119;-67
2021/12/04 13:55:22;;;;;;;23.65;11.57;;;;;;;;;;6293699;28;20048;-67
2021/12/04 13:58:26;;;;;;;21.90;10.95;;;;;;;;;;6293192;28;20053;-67
2021/12/04 14:01:39;;;;;;;21.60;11.63;;;;;;;;;;6295038;28;20097;-67
2021/12/04 14:04:43;;;;;;;21.48;10.70;;;;;;;;;;6295026;28;20048;-68
2021/12/04 14:07:47;;;;;;;17.63;9.38;;;;;;;;;;6292735;28;20056;-67
2021/12/04 14:10:52;;;;;;;18.38;9.38;;;;;;;;;;6294719;28;20053;-68
2021/12/04 14:13:55;;;;;;;17.63;9.82;;;;;;;;;;6277376;28;20147;-67
2021/12/04 14:17:04;;;;;;;15.85;8.73;;;;;;;;;;6292399;28;20052;-68
2021/12/04 14:20:14;;;;;;;17.08;9.13;;;;;;;;;;6294023;28;20040;-68
2021/12/04 14:23:17;;;;;;;20.60;9.80;;;;;;;;;;6294454;28;20053;-67
2021/12/04 14:26:22;;;;;;;18.55;9.20;;;;;;;;;;6293201;28;20048;-67
2021/12/04 14:29:40;;;;;;;19.73;9.32;;;;;;;;;;6293241;28;20438;-68
2021/12/04 14:32:52;;;;;;;18.42;10.60;;;;;;;;;;6293267;28;20140;-68
2021/12/04 14:35:55;;;;;;;19.25;9.68;;;;;;;;;;6294821;28;20044;-68
2021/12/04 14:39:03;;;;;;;21.63;9.50;;;;;;;;;;6293818;28;20048;-69
2021/12/04 14:42:15;;;;;;;20.08;9.38;;;;;;;;;;6288572;28;20072;-68
2021/12/04 14:45:22;;;;;;;20.67;10.90;;;;;;;;;;6269329;28;20045;-68
2021/12/04 14:48:35;;;;;;;18.05;9.25;;;;;;;;;;6287651;28;20056;-68
2021/12/04 14:51:38;;;;;;;20.67;10.75;;;;;;;;;;6293147;28;20056;-69
2021/12/04 14:54:42;;;;;;;22.40;10.38;;;;;;;;;;6292224;28;20051;-69
2021/12/04 14:57:47;;;;;;;20.85;11.50;;;;;;;;;;6293401;28;20053;-69
2021/12/04 15:00:52;;;;;;;21.42;11.38;;;;;;;;;;6269331;28;20056;-67
2021/12/04 15:04:00;;;;;;;20.77;10.63;;;;;;;;;;6267906;28;20073;-69
2021/12/04 15:07:04;;;;;;;20.75;10.48;;;;;;;;;;6269384;28;20073;-69
2021/12/04 15:10:18;;;;;;;19.15;10.20;;;;;;;;;;6268100;28;20048;-66
2021/12/04 15:13:24;;;;;;;21.40;10.73;;;;;;;;;;6269339;28;20052;-67
2021/12/04 15:16:34;;;;;;;18.15;10.02;;;;;;;;;;6293505;28;20128;-66
2021/12/04 15:19:40;;;;;;;21.52;10.20;;;;;;;;;;6295692;28;20059;-66
2021/12/04 15:22:46;;;;;;;19.98;10.48;;;;;;;;;;6292030;28;20071;-67
2021/12/04 15:25:55;;;;;;;22.98;10.30;;;;;;;;;;6271919;28;20060;-66
2021/12/04 15:29:00;;;;;;;17.20;10.27;;;;;;;;;;6273576;28;20045;-65
2021/12/04 15:32:08;;;;;;;23.55;10.82;;;;;;;;;;6273386;28;20064;-64
2021/12/04 15:35:17;;;;;;;24.27;10.70;;;;;;;;;;6272608;28;20064;-65
2021/12/04 15:38:35;;;;;;;21.83;10.88;;;;;;;;;;6272596;28;20088;-64
2021/12/04 15:41:59;;;;;;;21.27;10.57;;;;;;;;;;6273291;28;20052;-64
2021/12/04 15:45:23;;;;;;;24.52;11.27;;;;;;;;;;6273421;28;20037;-64
2021/12/04 15:48:42;;;;;;;20.33;10.43;;;;;;;;;;6271621;28;20483;-65
2021/12/04 15:55:12;;;;;;;21.92;10.63;;;;;;;;;;6271546;28;20049;-65
2021/12/04 15:58:16;;;;;;;21.10;10.68;;;;;;;;;;6271682;28;20037;-64
2021/12/04 16:01:26;;;;;;;21.05;11.13;;;;;;;;;;6271202;28;20053;-65
2021/12/04 16:04:31;;;;;;;23.63;11.55;;;;;;;;;;6271642;28;20576;-64
2021/12/04 16:07:35;;;;;;;21.40;10.48;;;;;;;;;;6272656;28;20052;-64
2021/12/04 16:10:39;;;;;;;22.40;10.90;;;;;;;;;;6272543;28;20435;-66
2021/12/04 16:13:50;;;;;;;28.13;11.00;;;;;;;;;;6271371;28;20055;-66
2021/12/04 16:16:55;;;;;;;22.55;10.57;;;;;;;;;;6270866;28;20115;-67
2021/12/04 16:20:06;;;;;;;24.58;10.25;;;;;;;;;;6273018;28;20053;-66
2021/12/04 16:23:14;;;;;;;25.50;11.60;;;;;;;;;;6271985;28;20124;-66
2021/12/04 16:26:19;;;;;;;24.58;10.82;;;;;;;;;;6269596;28;20057;-67
2021/12/04 16:29:24;;;;;;;21.38;11.15;;;;;;;;;;6271025;28;20053;-66
2021/12/04 16:32:51;;;;;;;26.40;12.20;;;;;;;;;;6271893;28;20059;-66
2021/12/04 16:35:57;;;;;;;26.05;13.55;;;;;;;;;;6270159;28;20106;-66
2021/12/04 16:39:03;;;;;;;36.30;17.70;;;;;;;;;;6270696;28;20055;-67
2021/12/04 16:42:08;;;;;;;25.52;12.20;;;;;;;;;;6270597;28;20041;-66
2021/12/04 16:45:13;;;;;;;28.75;13.77;;;;;;;;;;6270590;28;20142;-66
2021/12/04 16:48:18;;;;;;;27.30;13.85;;;;;;;;;;6270178;28;20056;-66
2021/12/04 16:58:14;;;;;;;24.02;12.45;;;;;;;;;;6265683;28;20049;-66
2021/12/04 17:01:17;;;;;;;28.17;11.60;;;;;;;;;;6268653;28;20049;-66
2021/12/04 17:04:24;;;;;;;26.52;14.13;;;;;;;;;;6271389;28;20086;-67
2021/12/04 17:07:30;;;;;;;38.75;20.05;;;;;;;;;;6271257;28;20048;-67
2021/12/04 17:10:34;;;;;;;62.08;28.77;;;;;;;;;;6269341;28;20045;-67
2021/12/04 17:13:41;;;;;;;29.67;14.55;;;;;;;;;;6286381;28;20044;-68
2021/12/04 17:16:44;;;;;;;30.50;14.93;;;;;;;;;;6288262;28;20112;-66
2021/12/04 17:19:49;;;;;;;31.83;15.18;;;;;;;;;;6290021;28;20132;-66
2021/12/04 17:22:53;;;;;;;27.58;14.38;;;;;;;;;;6287425;28;20041;-65
2021/12/04 17:25:57;;;;;;;28.85;15.25;;;;;;;;;;6288511;28;20068;-66
2021/12/04 17:29:01;;;;;;;29.08;15.15;;;;;;;;;;6288350;28;20061;-66
2021/12/04 17:32:05;;;;;;;29.90;15.77;;;;;;;;;;6286684;28;20105;-67
2021/12/04 17:35:11;;;;;;;30.35;15.95;;;;;;;;;;6287241;28;20056;-67
2021/12/04 17:38:14;;;;;;;34.58;15.18;;;;;;;;;;6291433;28;20051;-67
2021/12/04 17:41:18;;;;;;;30.65;16.40;;;;;;;;;;6293186;28;20040;-65
2021/12/04 17:44:22;;;;;;;36.80;16.85;;;;;;;;;;6291793;28;20055;-66
2021/12/04 17:47:27;;;;;;;37.28;16.40;;;;;;;;;;6289093;28;20041;-66
2021/12/04 17:50:39;;;;;;;30.75;15.75;;;;;;;;;;6267713;28;20052;-66
2021/12/04 17:53:45;;;;;;;33.75;17.15;;;;;;;;;;6265575;28;20056;-66
2021/12/04 17:56:50;;;;;;;34.13;16.67;;;;;;;;;;6266845;28;20439;-66
2021/12/04 17:59:54;;;;;;;33.40;17.02;;;;;;;;;;6266348;28;20048;-67
2021/12/04 18:02:57;;;;;;;33.90;17.88;;;;;;;;;;6266149;28;20040;-67
2021/12/04 18:06:06;;;;;;;34.67;18.08;;;;;;;;;;6262556;28;20516;-67
2021/12/04 18:09:11;;;;;;;33.33;16.90;;;;;;;;;;6266282;28;20102;-67
2021/12/04 18:12:16;;;;;;;30.40;16.38;;;;;;;;;;6264905;28;20041;-66
2021/12/04 18:15:20;;;;;;;33.15;17.52;;;;;;;;;;6264268;28;20178;-67
2021/12/04 18:18:29;;;;;;;30.65;16.50;;;;;;;;;;6265278;28;20064;-67
2021/12/04 18:21:37;;;;;;;32.17;16.05;;;;;;;;;;6266134;28;20124;-66
2021/12/04 18:24:41;;;;;;;30.85;16.45;;;;;;;;;;6266244;28;20051;-66
2021/12/04 18:27:45;;;;;;;32.08;17.17;;;;;;;;;;6264155;28;20044;-66
2021/12/04 18:30:51;;;;;;;32.15;16.55;;;;;;;;;;6268851;28;20063;-66
2021/12/04 18:33:55;;;;;;;30.83;16.50;;;;;;;;;;6268254;28;20057;-65
2021/12/04 18:37:00;;;;;;;30.13;16.23;;;;;;;;;;6265402;28;20052;-66
2021/12/04 18:40:07;;;;;;;29.90;15.80;;;;;;;;;;6267452;28;20056;-66
2021/12/04 18:43:12;;;;;;;31.35;14.70;;;;;;;;;;6268781;28;20045;-66
2021/12/04 18:46:15;;;;;;;31.33;16.20;;;;;;;;;;6267243;28;20045;-66
2021/12/04 18:49:22;;;;;;;34.10;17.95;;;;;;;;;;6262357;28;20052;-66
2021/12/04 18:52:27;;;;;;;32.50;16.48;;;;;;;;;;6263249;28;20049;-66
2021/12/04 18:55:31;;;;;;;30.30;16.50;;;;;;;;;;6269358;28;20041;-66
2021/12/04 18:58:41;;;;;;;31.80;17.00;;;;;;;;;;6269252;28;20126;-66
2021/12/04 19:01:47;;;;;;;32.78;16.02;;;;;;;;;;6268873;28;20045;-66
2021/12/04 19:04:52;;;;;;;27.13;15.32;;;;;;;;;;6269125;28;20041;-66
2021/12/04 19:07:57;;;;;;;28.02;14.07;;;;;;;;;;6270732;28;20045;-66
2021/12/04 19:11:01;;;;;;;32.10;16.45;;;;;;;;;;6268818;28;20056;-66
2021/12/04 19:14:05;;;;;;;34.08;16.35;;;;;;;;;;6271569;28;20044;-66
2021/12/04 19:17:08;;;;;;;29.48;14.68;;;;;;;;;;6272728;28;20075;-66
2021/12/04 19:20:12;;;;;;;29.35;15.57;;;;;;;;;;6253662;28;20154;-66
2021/12/04 19:23:17;;;;;;;28.85;15.75;;;;;;;;;;6272385;28;20211;-66
2021/12/04 19:26:21;;;;;;;32.88;16.58;;;;;;;;;;6272769;28;20056;-66
2021/12/04 19:29:26;;;;;;;28.40;14.60;;;;;;;;;;6271814;28;20408;-66
2021/12/04 19:32:30;;;;;;;26.73;14.77;;;;;;;;;;6269494;28;20048;-66
2021/12/04 19:49:52;;;;;;;28.95;14.55;;;;;;;;;;6272129;28;20044;-66
2021/12/04 19:52:48;;;;;;;26.40;14.20;;;;;;;;;;6271930;28;20049;-66
2021/12/04 19:55:54;;;;;;;27.73;14.13;;;;;;;;;;6272000;28;20056;-66
2021/12/04 19:58:59;;;;;;;28.30;15.20;;;;;;;;;;6269959;28;20048;-66
2021/12/04 20:02:11;;;;;;;27.67;14.52;;;;;;;;;;6270348;28;20045;-65
2021/12/04 20:05:34;;;;;;;24.92;13.40;;;;;;;;;;6271317;28;20094;-65
2021/12/04 20:15:34;;;;;;;24.88;13.23;;;;;;;;;;6427203;27;20042;-66
2021/12/04 20:18:38;;;;;;;24.27;13.23;;;;;;;;;;6445777;27;20042;-66
2021/12/04 20:21:49;;;;;;;25.00;14.43;;;;;;;;;;6444625;27;20469;-66
2021/12/04 20:24:55;;;;;;;24.40;13.82;;;;;;;;;;6445650;27;20038;-66
2021/12/04 20:28:05;;;;;;;26.40;14.13;;;;;;;;;;6445604;27;20050;-66
2021/12/04 20:31:14;;;;;;;28.38;13.90;;;;;;;;;;6426007;27;20053;-67
2021/12/04 20:34:35;;;;;;;26.98;14.90;;;;;;;;;;6445154;27;20038;-66
2021/12/04 21:08:52;;;;;;;27.40;12.73;;;;;;;;;;6338386;28;20048;-66
2021/12/04 21:12:18;;;;;;;27.92;14.00;;;;;;;;;;6444244;27;20408;-68
2021/12/04 21:52:24;;;;;;;25.38;13.98;;;;;;;;;;6406466;27;20046;-66
2021/12/04 21:55:43;;;;;;;;;;;;;;;;;;6408083;27;20042;-65
2021/12/04 22:08:58;;;;;;;25.42;13.25;;;;;;;;;;6426004;27;20008;-66
2021/12/04 22:09:12;;;;;;;26.30;14.05;;;;;;;;;;6425518;27;20042;-66
2021/12/04 22:12:22;;;;;;;23.73;12.90;;;;;;;;;;6404810;27;20163;-66
2021/12/04 22:15:54;;;;;;;23.17;12.77;;;;;;;;;;6405217;27;20057;-66
2021/12/04 22:26:13;;;;;;;23.83;13.48;;;;;;;;;;6423470;27;20335;-65
2021/12/04 22:56:24;;;;;;;25.05;14.25;;;;;;;;;;6422958;27;20094;-65
2021/12/04 22:59:28;;;;;;;25.92;14.27;;;;;;;;;;6387355;27;20046;-66
2021/12/04 23:02:40;;;;;;;28.15;15.13;;;;;;;;;;6422793;27;20058;-66
2021/12/04 23:12:41;;;;;;;28.38;13.70;;;;;;;;;;6403636;27;20154;-66
2021/12/04 23:15:53;;;;;;;28.55;15.20;;;;;;;;;;6386963;27;20102;-66
2021/12/04 23:32:43;;;;;;;28.75;15.50;;;;;;;;;;6421395;27;20034;-66
2021/12/04 23:35:56;;;;;;;30.42;16.13;;;;;;;;;;6421470;27;20495;-65
2021/12/04 23:42:33;;;;;;;29.63;16.52;;;;;;;;;;6421892;27;20046;-67
